Terminal Aerodrome Forecast
Issued by NWS El Paso, TX

Home | Current Version | Previous Version | Text Only | Print | Product List | Glossary On
Versions: 1 2 3 4 5 6 7 8 9 10 11 12 13 14 15 16 17
000
FTUS44 KEPZ 220520
TAFELP
TAF
KELP 220520Z 2206/2306 VRB04KT P6SM FEW250
     FM221600 18005KT P6SM SCT060 SCT250
     FM230100 10005KT P6SM SCT060 SCT250=

USA.gov is the U.S. government's official web portal to all federal, state and local government web resources and services.